Etusivu
METAR-TAF:

METAR-TAF

Lentoasemat :

Mackenzie, Brittiläinen Kolumbia, Kanada

Leveyspiiri: 55-18N, Pituuspiiri: 123-08W, korkeus merenpinnasta: 695 m

Tämänhetkinen sää

Tämä raportti tehtiin 40 minuuttia sitten, kello 02.00 UTC
tyyntä
Lämpötila -2°C
Kosteus 100%
Ilmanpaine 1010 hPa
Näkyvyys: 14.5 km
Hajanaisia pilviä 16000 ft:n korkeudessa
Hajanaisia pilviä 19000 ft:n korkeudessa

METAR: CYZY 190200Z AUTO 00000KT 9SM SCT160 SCT190 M02/M02 A2983 RMK SLP136

Aika: 18:40 (02:40 UTC)

Sääennuste

Tämä raportti tehtiin 2 tuntia ja 2 minuuttia sitten, kello 00.38 UTC
Ennuste voimassa 19. päivästä klo 01 UTC - 19. päivään klo 09 UTC
Tuuli 3 kn eri suunnista
Näkyvyys: 10 km
Muutamia pilviä 4000 ft:n korkeudessa
Hajanaisia pilviä 20000 ft:n korkeudessa

TAF: CYZY 190038Z 1901/1909 VRB03KT P6SM FEW040 SCT200 RMK FCST BASED ON AUTO OBS. NXT FCST BY 190700Z

Säähavainnot ja -ennusteet yli 4000 lentoasemalta (METAR- ja TAF-raportit).

Käytössä olevat sääasemat on merkitty karttaan keltaisilla ja punaisilla pisteillä.

Aseta hiiri pisteen päälle nähdäksesi sääaseman nimen.

Klikkaa sitten nähdäksesi säähavainnot ja -ennusteet.

Kartan vaihtaminen: klikkaa mustalla rastilla varustettuja vihreitä pisteitä, niin voit zoomata sisään; viivalla varustettua vihreää pistettä, niin voit zoomata ulos tai vihreitä nuolia, niin pääset viereisille kartoille.


METAR-TAF: